Aviation Digital Data Service (ADDS)

Output produced by METARs form (1714 UTC 24 June 2019)
found at http://www.aviationweather.gov/metar/data/
 
METAR text: SLLP 241700Z 27005KT 7000 NSC 13/M15 Q1038
Conditions at: SLLP (LA PAZ/JFK INTL , BO) observed 1700 UTC 24 June 2019
Temperature: 13.0°C (55°F)
Dewpoint: -15.0°C ( 5°F) [RH = 13%]
Pressure (altimeter): 30.65 inches Hg (1038.0 mb)
Winds: from the W (270 degrees) at 6 MPH (5 knots; 2.6 m/s)
Visibility: 4 miles ( 7 km)
Ceiling: at least 12,000 feet AGL
Clouds: sky clear below 12,000 feet AGL
Weather: no significant weather observed at this time

METAR text: SLLP 241600Z 29006KT 6000 NSC 11/M13 Q1039
Conditions at: SLLP (LA PAZ/JFK INTL , BO) observed 1600 UTC 24 June 2019
Temperature: 11.0°C (52°F)
Dewpoint: -13.0°C ( 9°F) [RH = 17%]
Pressure (altimeter): 30.68 inches Hg (1039.0 mb)
Winds: from the WNW (290 degrees) at 7 MPH (6 knots; 3.1 m/s)
Visibility: 4 miles ( 6 km)
Ceiling: at least 12,000 feet AGL
Clouds: sky clear below 12,000 feet AGL
Weather: no significant weather observed at this time

METAR text: SLLP 241500Z 26005KT 5000 FU NSC 09/M11 Q1039
Conditions at: SLLP (LA PAZ/JFK INTL , BO) observed 1500 UTC 24 June 2019
Temperature: 9.0°C (48°F)
Dewpoint: -11.0°C (12°F) [RH = 23%]
Pressure (altimeter): 30.68 inches Hg (1039.0 mb)
Winds: from the W (260 degrees) at 6 MPH (5 knots; 2.6 m/s)
Visibility: 3 miles ( 5 km)
Ceiling: at least 12,000 feet AGL
Clouds: sky clear below 12,000 feet AGL
Weather: FU  (smoke)

METAR text: SLLP 241400Z 27005KT 4000W FU NSC 08/M13 Q1039
Conditions at: SLLP (LA PAZ/JFK INTL , BO) observed 1400 UTC 24 June 2019
Temperature: 8.0°C (46°F)
Dewpoint: -13.0°C ( 9°F) [RH = 21%]
Pressure (altimeter): 30.68 inches Hg (1039.0 mb)
Winds: from the W (270 degrees) at 6 MPH (5 knots; 2.6 m/s)
Visibility: 2.49 miles (4.01 km)
Ceiling: at least 12,000 feet AGL
Clouds: sky clear below 12,000 feet AGL
Weather: FU  (smoke)

METAR text: SLLP 241300Z 28005KT 5000 FU NSC 06/M12 Q1039
Conditions at: SLLP (LA PAZ/JFK INTL , BO) observed 1300 UTC 24 June 2019
Temperature: 6.0°C (43°F)
Dewpoint: -12.0°C (10°F) [RH = 26%]
Pressure (altimeter): 30.68 inches Hg (1039.0 mb)
Winds: from the W (280 degrees) at 6 MPH (5 knots; 2.6 m/s)
Visibility: 3 miles ( 5 km)
Ceiling: at least 12,000 feet AGL
Clouds: sky clear below 12,000 feet AGL
Weather: FU  (smoke)

METAR text: SLLP 241200Z 02004KT 8000 NSC 02/M16 Q1039
Conditions at: SLLP (LA PAZ/JFK INTL , BO) observed 1200 UTC 24 June 2019
Temperature: 2.0°C (36°F)
Dewpoint: -16.0°C ( 3°F) [RH = 25%]
Pressure (altimeter): 30.68 inches Hg (1039.0 mb)
Winds: from the NNE (20 degrees) at 5 MPH (4 knots; 2.1 m/s)
Visibility: 5 miles ( 8 km)
Ceiling: at least 12,000 feet AGL
Clouds: sky clear below 12,000 feet AGL
Weather: no significant weather observed at this time

METAR text: SLLP 241100Z 01004KT 7000 NSC M01/M16 Q1038
Conditions at: SLLP (LA PAZ/JFK INTL , BO) observed 1100 UTC 24 June 2019
Temperature: -1.0°C (30°F)
Dewpoint: -16.0°C ( 3°F) [RH = 31%]
Pressure (altimeter): 30.65 inches Hg (1038.0 mb)
Winds: from the N (10 degrees) at 5 MPH (4 knots; 2.1 m/s)
Visibility: 4 miles ( 7 km)
Ceiling: at least 12,000 feet AGL
Clouds: sky clear below 12,000 feet AGL
Weather: no significant weather observed at this time

METAR text: SLLP 241000Z VRB02KT 7000 NSC M04/M17 Q1037
Conditions at: SLLP (LA PAZ/JFK INTL , BO) observed 1000 UTC 24 June 2019
Temperature: -4.0°C (25°F)
Dewpoint: -17.0°C ( 1°F) [RH = 36%]
Pressure (altimeter): 30.62 inches Hg (1037.0 mb)
Winds: variable direction winds at 2 MPH (2 knots; 1.0 m/s)
Visibility: 4 miles ( 7 km)
Ceiling: at least 12,000 feet AGL
Clouds: sky clear below 12,000 feet AGL
Weather: no significant weather observed at this time

METAR text: SLLP 240900Z 02004KT 7000 NSC M04/M16 Q1037
Conditions at: SLLP (LA PAZ/JFK INTL , BO) observed 0900 UTC 24 June 2019
Temperature: -4.0°C (25°F)
Dewpoint: -16.0°C ( 3°F) [RH = 39%]
Pressure (altimeter): 30.62 inches Hg (1037.0 mb)
Winds: from the NNE (20 degrees) at 5 MPH (4 knots; 2.1 m/s)
Visibility: 4 miles ( 7 km)
Ceiling: at least 12,000 feet AGL
Clouds: sky clear below 12,000 feet AGL
Weather: no significant weather observed at this time

METAR text: SLLP 240800Z 01006KT 6000 NSC M01/M17 Q1037
Conditions at: SLLP (LA PAZ/JFK INTL , BO) observed 0800 UTC 24 June 2019
Temperature: -1.0°C (30°F)
Dewpoint: -17.0°C ( 1°F) [RH = 28%]
Pressure (altimeter): 30.62 inches Hg (1037.0 mb)
Winds: from the N (10 degrees) at 7 MPH (6 knots; 3.1 m/s)
Visibility: 4 miles ( 6 km)
Ceiling: at least 12,000 feet AGL
Clouds: sky clear below 12,000 feet AGL
Weather: no significant weather observed at this time

METAR text: SLLP 240700Z 02005KT 5000 FU NSC M02/M18 Q1038
Conditions at: SLLP (LA PAZ/JFK INTL , BO) observed 0700 UTC 24 June 2019
Temperature: -2.0°C (28°F)
Dewpoint: -18.0°C (-0°F) [RH = 28%]
Pressure (altimeter): 30.65 inches Hg (1038.0 mb)
Winds: from the NNE (20 degrees) at 6 MPH (5 knots; 2.6 m/s)
Visibility: 3 miles ( 5 km)
Ceiling: at least 12,000 feet AGL
Clouds: sky clear below 12,000 feet AGL
Weather: FU  (smoke)

METAR text: SLLP 240600Z 02005KT 5000 FU NSC 01/M17 Q1038
Conditions at: SLLP (LA PAZ/JFK INTL , BO) observed 0600 UTC 24 June 2019
Temperature: 1.0°C (34°F)
Dewpoint: -17.0°C ( 1°F) [RH = 25%]
Pressure (altimeter): 30.65 inches Hg (1038.0 mb)
Winds: from the NNE (20 degrees) at 6 MPH (5 knots; 2.6 m/s)
Visibility: 3 miles ( 5 km)
Ceiling: at least 12,000 feet AGL
Clouds: sky clear below 12,000 feet AGL
Weather: FU  (smoke)

METAR text: SLLP 240500Z 04005KT 5000 FU NSC M04/M16 Q1038
Conditions at: SLLP (LA PAZ/JFK INTL , BO) observed 0500 UTC 24 June 2019
Temperature: -4.0°C (25°F)
Dewpoint: -16.0°C ( 3°F) [RH = 39%]
Pressure (altimeter): 30.65 inches Hg (1038.0 mb)
Winds: from the NE (40 degrees) at 6 MPH (5 knots; 2.6 m/s)
Visibility: 3 miles ( 5 km)
Ceiling: at least 12,000 feet AGL
Clouds: sky clear below 12,000 feet AGL
Weather: FU  (smoke)

METAR text: SLLP 240400Z VRB02KT 5000 FU NSC M04/M18 Q1038
Conditions at: SLLP (LA PAZ/JFK INTL , BO) observed 0400 UTC 24 June 2019
Temperature: -4.0°C (25°F)
Dewpoint: -18.0°C (-0°F) [RH = 33%]
Pressure (altimeter): 30.65 inches Hg (1038.0 mb)
Winds: variable direction winds at 2 MPH (2 knots; 1.0 m/s)
Visibility: 3 miles ( 5 km)
Ceiling: at least 12,000 feet AGL
Clouds: sky clear below 12,000 feet AGL
Weather: FU  (smoke)

METAR text: SLLP 240300Z VRB02KT 6000 NSC M02/M15 Q1039
Conditions at: SLLP (LA PAZ/JFK INTL , BO) observed 0300 UTC 24 June 2019
Temperature: -2.0°C (28°F)
Dewpoint: -15.0°C ( 5°F) [RH = 36%]
Pressure (altimeter): 30.68 inches Hg (1039.0 mb)
Winds: variable direction winds at 2 MPH (2 knots; 1.0 m/s)
Visibility: 4 miles ( 6 km)
Ceiling: at least 12,000 feet AGL
Clouds: sky clear below 12,000 feet AGL
Weather: no significant weather observed at this time

METAR text: SLLP 240200Z VRB02KT 6000 NSC M04/M16 Q1039
Conditions at: SLLP (LA PAZ/JFK INTL , BO) observed 0200 UTC 24 June 2019
Temperature: -4.0°C (25°F)
Dewpoint: -16.0°C ( 3°F) [RH = 39%]
Pressure (altimeter): 30.68 inches Hg (1039.0 mb)
Winds: variable direction winds at 2 MPH (2 knots; 1.0 m/s)
Visibility: 4 miles ( 6 km)
Ceiling: at least 12,000 feet AGL
Clouds: sky clear below 12,000 feet AGL
Weather: no significant weather observed at this time

METAR text: SLLP 240100Z VRB02KT 8000 NSC M02/M16 Q1039
Conditions at: SLLP (LA PAZ/JFK INTL , BO) observed 0100 UTC 24 June 2019
Temperature: -2.0°C (28°F)
Dewpoint: -16.0°C ( 3°F) [RH = 33%]
Pressure (altimeter): 30.68 inches Hg (1039.0 mb)
Winds: variable direction winds at 2 MPH (2 knots; 1.0 m/s)
Visibility: 5 miles ( 8 km)
Ceiling: at least 12,000 feet AGL
Clouds: sky clear below 12,000 feet AGL
Weather: no significant weather observed at this time

METAR text: SLLP 240000Z 36003KT 8000 NSC 02/M14 Q1038
Conditions at: SLLP (LA PAZ/JFK INTL , BO) observed 0000 UTC 24 June 2019
Temperature: 2.0°C (36°F)
Dewpoint: -14.0°C ( 7°F) [RH = 29%]
Pressure (altimeter): 30.65 inches Hg (1038.0 mb)
Winds: from the N (360 degrees) at 3 MPH (3 knots; 1.5 m/s)
Visibility: 5 miles ( 8 km)
Ceiling: at least 12,000 feet AGL
Clouds: sky clear below 12,000 feet AGL
Weather: no significant weather observed at this time

METAR text: SLLP 232300Z 09006KT 9000 NSC 02/M16 Q1038
Conditions at: SLLP (LA PAZ/JFK INTL , BO) observed 2300 UTC 23 June 2019
Temperature: 2.0°C (36°F)
Dewpoint: -16.0°C ( 3°F) [RH = 25%]
Pressure (altimeter): 30.65 inches Hg (1038.0 mb)
Winds: from the E (90 degrees) at 7 MPH (6 knots; 3.1 m/s)
Visibility: 6 miles ( 9 km)
Ceiling: at least 12,000 feet AGL
Clouds: sky clear below 12,000 feet AGL
Weather: no significant weather observed at this time

METAR text: SLLP 232200Z 12009KT 9000 NSC 10/M18 Q1038
Conditions at: SLLP (LA PAZ/JFK INTL , BO) observed 2200 UTC 23 June 2019
Temperature: 10.0°C (50°F)
Dewpoint: -18.0°C (-0°F) [RH = 12%]
Pressure (altimeter): 30.65 inches Hg (1038.0 mb)
Winds: from the ESE (120 degrees) at 10 MPH (9 knots; 4.6 m/s)
Visibility: 6 miles ( 9 km)
Ceiling: at least 12,000 feet AGL
Clouds: sky clear below 12,000 feet AGL
Weather: no significant weather observed at this time

METAR text: SLLP 232100Z 13010KT 9000 NSC 13/M20 Q1038
Conditions at: SLLP (LA PAZ/JFK INTL , BO) observed 2100 UTC 23 June 2019
Temperature: 13.0°C (55°F)
Dewpoint: -20.0°C (-4°F) [RH =  8%]
Pressure (altimeter): 30.65 inches Hg (1038.0 mb)
Winds: from the SE (130 degrees) at 12 MPH (10 knots; 5.1 m/s)
Visibility: 6 miles ( 9 km)
Ceiling: at least 12,000 feet AGL
Clouds: sky clear below 12,000 feet AGL
Weather: no significant weather observed at this time

METAR text: SLLP 232000Z 12007KT 070V150 9999 NSC 15/M19 Q1038
Conditions at: SLLP (LA PAZ/JFK INTL , BO) observed 2000 UTC 23 June 2019
Temperature: 15.0°C (59°F)
Dewpoint: -19.0°C (-2°F) [RH =  8%]
Pressure (altimeter): 30.65 inches Hg (1038.0 mb)
Winds: from the ESE (120 degrees) at 8 MPH (7 knots; 3.6 m/s)
Visibility: 6 or more miles (10+ km)
Ceiling: at least 12,000 feet AGL
Clouds: sky clear below 12,000 feet AGL
Weather: no significant weather observed at this time

METAR text: SLLP 231900Z 13007KT 9999 NSC 15/M19 Q1039
Conditions at: SLLP (LA PAZ/JFK INTL , BO) observed 1900 UTC 23 June 2019
Temperature: 15.0°C (59°F)
Dewpoint: -19.0°C (-2°F) [RH =  8%]
Pressure (altimeter): 30.68 inches Hg (1039.0 mb)
Winds: from the SE (130 degrees) at 8 MPH (7 knots; 3.6 m/s)
Visibility: 6 or more miles (10+ km)
Ceiling: at least 12,000 feet AGL
Clouds: sky clear below 12,000 feet AGL
Weather: no significant weather observed at this time

METAR text: SLLP 231800Z 15005KT 090V260 9999 NSC 14/M21 Q1040
Conditions at: SLLP (LA PAZ/JFK INTL , BO) observed 1800 UTC 23 June 2019
Temperature: 14.0°C (57°F)
Dewpoint: -21.0°C (-6°F) [RH =  7%]
Pressure (altimeter): 30.71 inches Hg (1040.0 mb)
Winds: from the SSE (150 degrees) at 6 MPH (5 knots; 2.6 m/s)
Visibility: 6 or more miles (10+ km)
Ceiling: at least 12,000 feet AGL
Clouds: sky clear below 12,000 feet AGL
Weather: no significant weather observed at this time

METAR text: SLLP 231700Z 14004KT 070V200 9999 NSC 14/M22 Q1042
Conditions at: SLLP (LA PAZ/JFK INTL , BO) observed 1700 UTC 23 June 2019
Temperature: 14.0°C (57°F)
Dewpoint: -22.0°C (-8°F) [RH =  7%]
Pressure (altimeter): 30.77 inches Hg (1042.0 mb)
Winds: from the SE (140 degrees) at 5 MPH (4 knots; 2.1 m/s)
Visibility: 6 or more miles (10+ km)
Ceiling: at least 12,000 feet AGL
Clouds: sky clear below 12,000 feet AGL
Weather: no significant weather observed at this time

METAR text: SLLP 231600Z 18005KT 110V260 9999 NSC 11/M20 Q1042
Conditions at: SLLP (LA PAZ/JFK INTL , BO) observed 1600 UTC 23 June 2019
Temperature: 11.0°C (52°F)
Dewpoint: -20.0°C (-4°F) [RH = 10%]
Pressure (altimeter): 30.77 inches Hg (1042.0 mb)
Winds: from the S (180 degrees) at 6 MPH (5 knots; 2.6 m/s)
Visibility: 6 or more miles (10+ km)
Ceiling: at least 12,000 feet AGL
Clouds: sky clear below 12,000 feet AGL
Weather: no significant weather observed at this time

METAR text: SLLP 231500Z VRB02KT 9999 NSC 08/M16 Q1043
Conditions at: SLLP (LA PAZ/JFK INTL , BO) observed 1500 UTC 23 June 2019
Temperature: 8.0°C (46°F)
Dewpoint: -16.0°C ( 3°F) [RH = 16%]
Pressure (altimeter): 30.80 inches Hg (1043.0 mb)
Winds: variable direction winds at 2 MPH (2 knots; 1.0 m/s)
Visibility: 6 or more miles (10+ km)
Ceiling: at least 12,000 feet AGL
Clouds: sky clear below 12,000 feet AGL
Weather: no significant weather observed at this time

METAR text: SLLP 231400Z 24004KT 190V300 9999 NSC 05/M15 Q1043
Conditions at: SLLP (LA PAZ/JFK INTL , BO) observed 1400 UTC 23 June 2019
Temperature: 5.0°C (41°F)
Dewpoint: -15.0°C ( 5°F) [RH = 22%]
Pressure (altimeter): 30.80 inches Hg (1043.0 mb)
Winds: from the WSW (240 degrees) at 5 MPH (4 knots; 2.1 m/s)
Visibility: 6 or more miles (10+ km)
Ceiling: at least 12,000 feet AGL
Clouds: sky clear below 12,000 feet AGL
Weather: no significant weather observed at this time

METAR text: SLLP 231300Z VRB02KT 9999 NSC 04/M15 Q1043
Conditions at: SLLP (LA PAZ/JFK INTL , BO) observed 1300 UTC 23 June 2019
Temperature: 4.0°C (39°F)
Dewpoint: -15.0°C ( 5°F) [RH = 23%]
Pressure (altimeter): 30.80 inches Hg (1043.0 mb)
Winds: variable direction winds at 2 MPH (2 knots; 1.0 m/s)
Visibility: 6 or more miles (10+ km)
Ceiling: at least 12,000 feet AGL
Clouds: sky clear below 12,000 feet AGL
Weather: no significant weather observed at this time

METAR text: SLLP 231200Z 35003KT 9999 NSC 02/M14 Q1043
Conditions at: SLLP (LA PAZ/JFK INTL , BO) observed 1200 UTC 23 June 2019
Temperature: 2.0°C (36°F)
Dewpoint: -14.0°C ( 7°F) [RH = 29%]
Pressure (altimeter): 30.80 inches Hg (1043.0 mb)
Winds: from the N (350 degrees) at 3 MPH (3 knots; 1.5 m/s)
Visibility: 6 or more miles (10+ km)
Ceiling: at least 12,000 feet AGL
Clouds: sky clear below 12,000 feet AGL
Weather: no significant weather observed at this time

METAR text: SLLP 231100Z 36005KT 9999 NSC M02/M15 Q1042
Conditions at: SLLP (LA PAZ/JFK INTL , BO) observed 1100 UTC 23 June 2019
Temperature: -2.0°C (28°F)
Dewpoint: -15.0°C ( 5°F) [RH = 36%]
Pressure (altimeter): 30.77 inches Hg (1042.0 mb)
Winds: from the N (360 degrees) at 6 MPH (5 knots; 2.6 m/s)
Visibility: 6 or more miles (10+ km)
Ceiling: at least 12,000 feet AGL
Clouds: sky clear below 12,000 feet AGL
Weather: no significant weather observed at this time

METAR text: SLLP 231000Z 36006KT 9999 NSC M02/M15 Q1041
Conditions at: SLLP (LA PAZ/JFK INTL , BO) observed 1000 UTC 23 June 2019
Temperature: -2.0°C (28°F)
Dewpoint: -15.0°C ( 5°F) [RH = 36%]
Pressure (altimeter): 30.74 inches Hg (1041.0 mb)
Winds: from the N (360 degrees) at 7 MPH (6 knots; 3.1 m/s)
Visibility: 6 or more miles (10+ km)
Ceiling: at least 12,000 feet AGL
Clouds: sky clear below 12,000 feet AGL
Weather: no significant weather observed at this time

METAR text: SLLP 230900Z 36004KT 9999 NSC M03/M14 Q1041
Conditions at: SLLP (LA PAZ/JFK INTL , BO) observed 0900 UTC 23 June 2019
Temperature: -3.0°C (27°F)
Dewpoint: -14.0°C ( 7°F) [RH = 42%]
Pressure (altimeter): 30.74 inches Hg (1041.0 mb)
Winds: from the N (360 degrees) at 5 MPH (4 knots; 2.1 m/s)
Visibility: 6 or more miles (10+ km)
Ceiling: at least 12,000 feet AGL
Clouds: sky clear below 12,000 feet AGL
Weather: no significant weather observed at this time

METAR text: SLLP 230800Z 01003KT 9999 NSC M07/M16 Q1041
Conditions at: SLLP (LA PAZ/JFK INTL , BO) observed 0800 UTC 23 June 2019
Temperature: -7.0°C (19°F)
Dewpoint: -16.0°C ( 3°F) [RH = 49%]
Pressure (altimeter): 30.74 inches Hg (1041.0 mb)
Winds: from the N (10 degrees) at 3 MPH (3 knots; 1.5 m/s)
Visibility: 6 or more miles (10+ km)
Ceiling: at least 12,000 feet AGL
Clouds: sky clear below 12,000 feet AGL
Weather: no significant weather observed at this time

METAR text: SLLP 230700Z 04003KT 9999 NSC M03/M18 Q1041
Conditions at: SLLP (LA PAZ/JFK INTL , BO) observed 0700 UTC 23 June 2019
Temperature: -3.0°C (27°F)
Dewpoint: -18.0°C (-0°F) [RH = 30%]
Pressure (altimeter): 30.74 inches Hg (1041.0 mb)
Winds: from the NE (40 degrees) at 3 MPH (3 knots; 1.5 m/s)
Visibility: 6 or more miles (10+ km)
Ceiling: at least 12,000 feet AGL
Clouds: sky clear below 12,000 feet AGL
Weather: no significant weather observed at this time

METAR text: SLLP 230600Z 00000KT 9999 NSC M07/M19 Q1042
Conditions at: SLLP (LA PAZ/JFK INTL , BO) observed 0600 UTC 23 June 2019
Temperature: -7.0°C (19°F)
Dewpoint: -19.0°C (-2°F) [RH = 38%]
Pressure (altimeter): 30.77 inches Hg (1042.0 mb)
Winds: calm
Visibility: 6 or more miles (10+ km)
Ceiling: at least 12,000 feet AGL
Clouds: sky clear below 12,000 feet AGL
Weather: no significant weather observed at this time

Forecast for: SLLP (LA PAZ/JFK INTL , BO)
Text: TAF SLLP 241650Z 2418/2518 29010KT 8000 NSC TX15/2420Z TNM06/2510Z
Forecast period: 1800 to 2200 UTC 24 June 2019
Forecast type: FROM: standard forecast or significant change
Winds: from the WNW (290 degrees) at 12 MPH (10 knots; 5.1 m/s)
Visibility: 5 miles (8 km)
Ceiling: unknown
Clouds: missing
Weather: no significant weather forecast for this period
Text: BECMG 2422/2501 9999 NSW
Forecast period: 2200 UTC 24 June 2019 to 0100 UTC 25 June 2019
Forecast type: BECOMING: Conditions expected to become as follows by 0100 UTC 25 June 2019
Winds: from the WNW (290 degrees) at 12 MPH (10 knots; 5.1 m/s)
Visibility: 6 or more miles 10+ km)
Ceiling: unknown
Clouds: missing
Weather: NSW  (no significant weather)
Text: BECMG 2501/2503 VRB02KT
Forecast period: 0100 to 1800 UTC 25 June 2019
Forecast type: BECOMING: Conditions expected to become as follows by 0300 UTC 25 June 2019
Winds: variable direction winds at 2 MPH (2 knots; 1.0 m/s)
Visibility: 6 or more miles 10+ km)
Ceiling: unknown
Clouds: missing
Weather: NSW  (no significant weather)